Time;durP1;ratioP1;P1;durP2;ratioP2;P2;SDS_P1;SDS_P2;PMS_P1;PMS_P2;Temp;Humidity;BMP_temperature;BMP_pressure;BME280_temperature;BME280_humidity;BME280_pressure;Samples;Min_cycle;Max_cycle;Signal;HPM_P1;HPM_P2
2023/01/27 00:00:27;;;;;;;85.18;18.20;;;2.00;99.90;;;0.24;100.00;101362.16;5055557;28;20048;-77
2023/01/27 00:02:53;;;;;;;81.45;17.35;;;1.90;99.90;;;0.17;100.00;101350.25;5086698;28;20040;-76
2023/01/27 00:05:18;;;;;;;81.80;16.42;;;2.00;99.90;;;-0.04;100.00;101310.00;5054624;28;20040;-77
2023/01/27 00:07:47;;;;;;;76.75;17.35;;;2.00;99.90;;;0.26;100.00;101348.59;5058646;28;20035;-76
2023/01/27 00:10:17;;;;;;;67.80;15.70;;;2.00;99.90;;;0.31;100.00;101354.44;5061047;28;20090;-76
2023/01/27 00:15:31;;;;;;;64.97;16.75;;;2.00;99.90;;;0.31;100.00;101356.25;5058007;28;20044;-76
2023/01/27 00:17:57;;;;;;;79.68;18.05;;;2.00;99.90;;;0.31;100.00;101351.75;5053960;28;20040;-76
2023/01/27 00:26:09;;;;;;;54.40;13.35;;;2.10;99.90;;;0.40;100.00;101345.59;5054107;28;20438;-75
2023/01/27 00:28:37;;;;;;;68.72;16.85;;;2.10;99.90;;;0.34;100.00;101334.50;5057095;28;20486;-77
2023/01/27 00:31:04;;;;;;;75.78;16.75;;;2.10;99.90;;;0.36;100.00;101343.28;5056700;28;20029;-76
2023/01/27 00:33:30;;;;;;;;;;;2.10;99.90;;;0.36;100.00;101333.41;5054135;28;20120;-75
2023/01/27 00:36:04;;;;;;;61.20;15.25;;;2.10;99.90;;;0.41;100.00;101335.72;5060451;28;20012;-75
2023/01/27 00:38:33;;;;;;;58.33;16.50;;;2.20;99.90;;;0.41;100.00;101335.72;5054103;28;20500;-74
2023/01/27 00:41:18;;;;;;;62.08;16.95;;;2.20;99.90;;;0.41;100.00;101331.19;5053978;28;20080;-74
2023/01/27 00:43:49;;;;;;;67.68;16.80;;;2.20;99.90;;;0.41;100.00;101338.41;5053538;28;20039;-75
2023/01/27 00:46:17;;;;;;;62.72;16.17;;;2.20;99.90;;;0.43;100.00;101345.31;5068158;28;20043;-74
2023/01/27 00:48:44;;;;;;;;;;;2.20;99.90;;;0.46;100.00;101354.09;5064832;28;20077;-74
2023/01/27 00:51:11;;;;;;;68.95;16.02;;;2.20;99.90;;;0.41;100.00;101347.28;5054210;28;19920;-77
2023/01/27 00:53:37;;;;;;;67.43;15.93;;;2.20;99.90;;;0.43;100.00;101339.94;5053581;28;20044;-75
2023/01/27 00:56:03;;;;;;;62.08;16.55;;;2.20;99.90;;;0.49;100.00;101353.81;5053078;28;20396;-76
2023/01/27 00:58:29;;;;;;;59.85;16.35;;;2.20;99.90;;;0.51;100.00;101351.84;5053602;28;20380;-76
2023/01/27 01:00:58;;;;;;;60.53;15.98;;;2.20;99.90;;;0.50;100.00;101366.25;5054975;28;20036;-76
2023/01/27 01:03:25;;;;;;;63.03;16.55;;;2.20;99.90;;;0.48;100.00;101363.72;5069467;28;20059;-74
2023/01/27 01:05:51;;;;;;;61.50;17.17;;;2.20;99.90;;;0.49;100.00;101359.19;5088295;28;20396;-76
2023/01/27 01:08:17;;;;;;;53.55;16.63;;;2.30;99.90;;;0.49;100.00;101359.19;5052616;28;20036;-76
2023/01/27 01:10:44;;;;;;;51.00;15.75;;;2.30;99.90;;;0.56;100.00;101379.19;5053535;28;20037;-75
2023/01/27 01:13:10;;;;;;;54.92;14.70;;;2.30;99.90;;;0.50;100.00;101372.50;5067063;28;20044;-76
2023/01/27 01:15:41;;;;;;;62.28;17.23;;;2.30;99.90;;;0.55;100.00;101385.53;5056332;28;20041;-76
2023/01/27 01:18:10;;;;;;;54.60;14.13;;;2.30;99.90;;;0.54;100.00;101386.50;5079852;28;20510;-76
2023/01/27 01:20:45;;;;;;;51.88;15.93;;;2.30;99.90;;;0.48;100.00;101369.09;5071281;28;20028;-76
2023/01/27 01:23:14;;;;;;;57.75;16.30;;;2.30;99.90;;;0.56;100.00;101382.69;5068739;28;20040;-77
2023/01/27 01:25:41;;;;;;;53.28;14.60;;;2.30;99.90;;;0.56;100.00;101387.22;5083318;28;20071;-76
2023/01/27 01:28:08;;;;;;;51.85;14.73;;;2.30;99.90;;;0.55;100.00;101390.91;5051647;28;20044;-76
2023/01/27 01:30:36;;;;;;;54.80;16.45;;;2.30;99.90;;;0.53;100.00;101393.72;5053984;28;21873;-77
2023/01/27 01:33:04;;;;;;;69.53;15.90;;;2.30;99.90;;;0.60;100.00;101399.41;5053198;28;20512;-76
2023/01/27 01:35:30;;;;;;;47.97;13.75;;;2.30;99.90;;;0.62;100.00;101396.56;5091048;28;20036;-76
2023/01/27 01:37:56;;;;;;;48.00;13.75;;;2.30;99.90;;;0.63;100.00;101392.91;5058676;28;20025;-77
2023/01/27 01:40:24;;;;;;;44.50;13.73;;;2.30;99.90;;;0.65;100.00;101393.63;5052328;28;20043;-76
2023/01/27 01:42:50;;;;;;;42.43;15.37;;;2.40;99.90;;;0.61;100.00;101395.72;5052638;28;20045;-76
2023/01/27 01:45:43;;;;;;;40.67;13.65;;;2.40;99.90;;;0.61;100.00;101390.38;5084946;28;20033;-76
2023/01/27 01:48:16;;;;;;;43.13;12.60;;;2.40;99.90;;;0.66;100.00;101389.94;5055493;28;20041;-76
2023/01/27 01:50:53;;;;;;;46.88;14.55;;;2.40;99.90;;;0.69;100.00;101395.06;5051288;28;20045;-77
2023/01/27 01:53:28;;;;;;;37.28;12.05;;;2.40;99.90;;;0.71;100.00;101402.00;5051823;28;20129;-76
2023/01/27 01:55:59;;;;;;;39.38;12.40;;;2.40;99.90;;;0.77;100.00;101394.38;5056522;28;20068;-77
2023/01/27 01:58:28;;;;;;;37.70;12.68;;;2.50;99.90;;;0.82;100.00;101397.53;5054283;28;20028;-78
2023/01/27 02:00:55;;;;;;;34.80;11.30;;;2.50;99.90;;;0.81;100.00;101407.41;5061565;28;20044;-77
2023/01/27 02:03:24;;;;;;;39.38;12.50;;;2.50;99.90;;;0.78;100.00;101401.44;5063278;28;20488;-77
2023/01/27 02:05:53;;;;;;;41.30;13.00;;;2.50;99.90;;;0.80;100.00;101396.81;5062760;28;20037;-78
2023/01/27 02:08:29;;;;;;;40.10;12.60;;;2.60;99.90;;;0.80;100.00;101404.88;5072829;28;20033;-78
2023/01/27 02:10:56;;;;;;;43.03;12.40;;;2.60;99.90;;;0.80;100.00;101405.72;5055461;28;20068;-77
2023/01/27 02:13:22;;;;;;;43.55;14.10;;;2.50;99.90;;;0.82;100.00;101408.28;5051840;28;20511;-78
2023/01/27 02:15:52;;;;;;;41.90;13.32;;;2.60;99.90;;;0.82;100.00;101408.28;5056966;28;20044;-78
2023/01/27 02:18:19;;;;;;;38.95;13.55;;;2.50;99.90;;;0.82;100.00;101402.91;5052004;28;20094;-78
2023/01/27 02:20:51;;;;;;;38.97;11.85;;;2.60;99.90;;;0.82;100.00;101403.75;5052260;28;20033;-77
2023/01/27 02:23:55;;;;;;;36.33;11.60;;;2.60;99.90;;;0.86;100.00;101409.72;5052073;28;20122;-78
2023/01/27 02:26:30;;;;;;;34.78;11.75;;;2.60;99.90;;;0.78;100.00;101406.81;5051046;28;20028;-77
2023/01/27 02:29:10;;;;;;;46.20;12.57;;;2.60;99.90;;;0.84;100.00;101414.38;5084341;28;20036;-75
2023/01/27 02:31:37;;;;;;;35.50;11.32;;;2.60;99.90;;;0.81;100.00;101401.22;5055029;28;20036;-78
2023/01/27 02:34:09;;;;;;;31.13;11.23;;;2.60;99.90;;;0.87;100.00;101414.09;5055879;28;20036;-77
2023/01/27 02:36:46;;;;;;;27.80;11.60;;;2.60;99.90;;;0.82;100.00;101406.44;5062420;28;20029;-77
2023/01/27 02:39:17;;;;;;;33.38;12.02;;;2.60;99.90;;;0.90;100.00;101411.16;5051395;28;20481;-78
2023/01/27 02:41:56;;;;;;;32.05;10.77;;;2.60;99.90;;;0.91;100.00;101410.16;5091227;28;20032;-77
2023/01/27 02:44:22;;;;;;;33.75;11.45;;;2.60;99.90;;;0.81;100.00;101401.22;5052119;28;20036;-77
2023/01/27 02:46:48;;;;;;;27.45;9.90;;;2.60;99.90;;;0.88;100.00;101413.13;5083778;28;20033;-78
2023/01/27 02:49:14;;;;;;;33.20;12.02;;;2.60;99.90;;;0.86;100.00;101412.41;5051955;28;20090;-78
2023/01/27 02:51:40;;;;;;;36.40;12.00;;;2.60;99.90;;;0.83;100.00;101410.00;5056803;28;20554;-78
2023/01/27 02:54:07;;;;;;;30.48;11.65;;;2.60;99.90;;;0.86;100.00;101415.09;5058297;28;20045;-77
2023/01/27 02:56:33;;;;;;;36.90;12.52;;;2.60;99.90;;;0.86;100.00;101412.41;5051933;28;20064;-77
2023/01/27 02:58:59;;;;;;;34.30;11.23;;;2.60;99.90;;;0.85;100.00;101418.75;5083997;28;20037;-78
2023/01/27 03:01:31;;;;;;;31.33;11.38;;;2.60;99.90;;;0.86;100.00;101420.47;5083910;28;20025;-78
2023/01/27 03:03:58;;;;;;;30.50;11.65;;;2.60;99.90;;;0.89;100.00;101427.38;5067538;28;20032;-78
2023/01/27 03:06:24;;;;;;;29.38;11.57;;;2.60;99.90;;;0.89;100.00;101424.69;5060145;28;20037;-77
2023/01/27 03:08:50;;;;;;;27.20;10.23;;;2.60;99.90;;;0.89;100.00;101430.94;5051193;28;20040;-78
2023/01/27 03:12:18;;;;;;;37.67;11.20;;;2.60;99.90;;;0.92;100.00;101425.28;5087820;28;20411;-77
2023/01/27 03:14:03;;;;;;;29.27;11.35;;;2.70;99.90;;;0.87;100.00;101432.91;5062665;28;20063;-77
2023/01/27 03:19:14;;;;;;;32.60;11.73;;;2.70;99.90;;;0.83;100.00;101413.50;5051961;28;20048;-77
2023/01/27 03:21:40;;;;;;;30.35;11.10;;;2.70;99.90;;;0.86;100.00;101423.97;5051207;28;20442;-77
2023/01/27 03:24:06;;;;;;;26.88;11.05;;;2.60;99.90;;;0.92;100.00;101436.03;5051088;28;20045;-77
2023/01/27 03:26:33;;;;;;;30.92;11.80;;;2.70;99.90;;;0.91;100.00;101439.72;5087736;28;20033;-77
2023/01/27 03:31:45;;;;;;;30.42;11.05;;;2.70;99.90;;;0.96;100.00;101437.47;5054696;28;20029;-77
2023/01/27 03:34:11;;;;;;;35.97;11.95;;;2.70;99.90;;;0.99;100.00;101431.00;5050964;28;20549;-77
2023/01/27 03:47:42;;;;;;;37.05;13.40;;;2.80;99.90;;;1.06;100.00;101431.28;5056930;28;20093;-77
2023/01/27 03:50:10;;;;;;;31.77;12.18;;;2.80;99.90;;;1.07;100.00;101427.63;5057417;28;20033;-78
2023/01/27 03:52:39;;;;;;;32.70;11.85;;;2.80;99.90;;;1.10;100.00;101435.41;5054921;28;20392;-77
2023/01/27 03:55:08;;;;;;;33.45;12.68;;;2.80;99.90;;;1.08;100.00;101434.72;5052880;28;20044;-77
2023/01/27 03:57:36;;;;;;;29.63;11.75;;;2.80;99.90;;;1.07;100.00;101430.31;5053759;28;20222;-77
2023/01/27 04:00:04;;;;;;;32.38;11.40;;;2.80;99.90;;;1.14;100.00;101437.69;5050402;28;20041;-75
2023/01/27 04:08:07;;;;;;;28.48;10.90;;;2.90;99.90;;;1.17;100.00;101439.25;5055906;28;20032;-78
2023/01/27 04:10:32;;;;;;;29.33;11.65;;;2.90;99.90;;;1.18;100.00;101437.41;5071952;28;20033;-77
2023/01/27 04:12:58;;;;;;;27.33;11.50;;;2.90;99.90;;;1.09;100.00;101428.34;5050667;28;20110;-77
2023/01/27 04:15:24;;;;;;;27.50;10.38;;;2.90;99.90;;;1.15;100.00;101438.56;5066538;28;20047;-77
2023/01/27 04:17:50;;;;;;;27.38;10.73;;;2.90;99.90;;;1.19;100.00;101436.41;5058879;28;20036;-78
2023/01/27 04:20:16;;;;;;;31.60;11.07;;;2.90;99.90;;;1.20;100.00;101441.69;5057450;28;20068;-77
2023/01/27 04:22:41;;;;;;;29.48;11.15;;;2.90;99.90;;;1.16;100.00;101432.19;5070900;28;20037;-77
2023/01/27 04:25:08;;;;;;;24.77;10.40;;;2.90;99.90;;;1.23;100.00;101448.63;5055333;28;20045;-76
2023/01/27 04:27:34;;;;;;;26.48;11.02;;;2.90;99.90;;;1.21;100.00;101450.59;5057636;28;20040;-77
2023/01/27 04:29:59;;;;;;;22.23;8.52;;;2.90;99.90;;;1.19;100.00;101447.16;5056661;28;20043;-77
2023/01/27 04:32:26;;;;;;;31.50;9.68;;;2.90;99.90;;;1.24;100.00;101450.34;5056047;28;20049;-77
2023/01/27 04:34:53;;;;;;;24.15;8.65;;;2.90;99.90;;;1.13;100.00;101445.91;5061247;28;20480;-77
2023/01/27 04:37:18;;;;;;;21.33;9.32;;;2.90;99.90;;;1.12;100.00;101441.50;5054059;28;20040;-81
2023/01/27 04:39:44;;;;;;;27.80;11.07;;;2.90;99.90;;;1.05;100.00;101435.81;5054058;28;20041;-79
2023/01/27 04:42:10;;;;;;;23.65;9.85;;;2.90;99.90;;;1.13;100.00;101454.81;5067470;28;20035;-77
2023/01/27 04:44:36;;;;;;;27.73;10.48;;;2.90;99.90;;;1.16;100.00;101461.75;5059672;28;20037;-77
2023/01/27 04:47:02;;;;;;;25.23;9.65;;;2.90;99.90;;;1.20;100.00;101473.09;5060724;28;20041;-77
2023/01/27 04:49:27;;;;;;;24.27;10.00;;;2.90;99.90;;;1.18;100.00;101467.84;5052104;28;20045;-77
2023/01/27 04:51:54;;;;;;;21.70;8.98;;;2.90;99.90;;;1.14;100.00;101461.88;5053402;28;20044;-76
2023/01/27 04:54:20;;;;;;;18.17;8.48;;;2.90;99.90;;;1.21;100.00;101459.50;5053816;28;20044;-76
2023/01/27 04:56:59;;;;;;;20.88;10.00;;;3.00;99.90;;;1.31;100.00;101472.13;5060722;28;20044;-77
2023/01/27 04:59:25;;;;;;;23.15;9.65;;;3.00;99.90;;;1.29;100.00;101466.91;5051667;28;20234;-76
2023/01/27 05:01:51;;;;;;;22.45;9.15;;;3.00;99.90;;;1.35;100.00;101469.03;5051925;28;20037;-76
2023/01/27 05:04:17;;;;;;;20.80;9.35;;;3.10;99.90;;;1.35;100.00;101470.91;5053417;28;20033;-78
2023/01/27 05:06:43;;;;;;;22.05;9.38;;;3.10;99.90;;;1.44;100.00;101483.50;5059430;28;20036;-76
2023/01/27 05:09:08;;;;;;;16.25;7.57;;;3.10;99.90;;;1.40;100.00;101482.09;5053780;28;20124;-77
2023/01/27 05:11:34;;;;;;;22.13;9.02;;;3.10;99.90;;;1.42;100.00;101480.09;5056861;28;20033;-76
2023/01/27 05:14:00;;;;;;;20.70;8.70;;;3.20;99.90;;;1.50;100.00;101493.72;5052900;28;20033;-76
2023/01/27 05:16:26;;;;;;;21.25;9.27;;;3.20;99.90;;;1.50;100.00;101496.41;5053503;28;20484;-77
2023/01/27 05:18:52;;;;;;;20.02;9.02;;;3.20;99.90;;;1.52;100.00;101497.13;5054281;28;20044;-76
2023/01/27 05:21:29;;;;;;;16.27;7.63;;;3.20;99.90;;;1.50;100.00;101493.72;5061613;28;20128;-76
2023/01/27 05:23:55;;;;;;;17.52;8.38;;;3.20;99.90;;;1.53;100.00;101498.81;5063832;28;20043;-76
2023/01/27 05:26:26;;;;;;;20.05;8.85;;;3.20;99.90;;;1.50;100.00;101507.16;5061785;28;20033;-76
2023/01/27 05:28:55;;;;;;;18.85;7.78;;;3.20;99.90;;;1.57;100.00;101508.31;5054825;28;20072;-76
2023/01/27 05:31:26;;;;;;;20.02;7.93;;;3.20;99.90;;;1.56;100.00;101505.78;5061216;28;20039;-77
2023/01/27 05:33:55;;;;;;;17.90;8.52;;;3.30;99.90;;;1.58;100.00;101515.41;5056638;28;20148;-75
2023/01/27 05:36:24;;;;;;;20.13;8.60;;;3.30;99.90;;;1.56;100.00;101512.00;5053862;28;20072;-76
2023/01/27 05:38:50;;;;;;;18.92;8.30;;;3.30;99.90;;;1.60;100.00;101514.44;5054890;28;20484;-76
2023/01/27 05:41:19;;;;;;;18.55;7.82;;;3.30;99.90;;;1.65;100.00;101518.41;5057136;28;20033;-77
2023/01/27 05:43:49;;;;;;;22.48;7.80;;;3.30;99.90;;;1.65;100.00;101522.94;5058929;28;20033;-76
2023/01/27 05:46:26;;;;;;;18.08;8.20;;;3.30;99.90;;;1.68;100.00;101522.66;5059129;28;20029;-76
2023/01/27 05:48:55;;;;;;;15.30;7.35;;;3.40;99.90;;;1.65;100.00;101528.31;5053856;28;20071;-77
2023/01/27 05:51:23;;;;;;;17.70;7.97;;;3.30;99.90;;;1.70;100.00;101526.06;5053292;28;20090;-76
2023/01/27 05:53:49;;;;;;;14.27;7.22;;;3.40;99.90;;;1.67;100.00;101529.88;5052984;28;20434;-76
2023/01/27 05:56:18;;;;;;;12.93;6.55;;;3.40;99.90;;;1.72;100.00;101524.97;5053322;28;20037;-76
2023/01/27 05:58:44;;;;;;;15.40;7.05;;;3.40;99.90;;;1.68;100.00;101528.06;5058816;28;20087;-77
2023/01/27 06:01:15;;;;;;;12.85;6.78;;;3.40;99.90;;;1.65;100.00;101534.53;5053081;28;20123;-77
2023/01/27 06:03:43;;;;;;;14.00;7.13;;;3.40;99.90;;;1.73;100.00;101544.63;5052814;28;20111;-77
2023/01/27 06:06:10;;;;;;;14.07;7.20;;;3.40;99.90;;;1.68;100.00;101546.88;5052509;28;20047;-76
2023/01/27 06:08:37;;;;;;;13.73;6.43;;;3.40;99.90;;;1.76;100.00;101549.72;5052911;28;20375;-76
2023/01/27 06:11:03;;;;;;;13.13;6.22;;;3.40;99.90;;;1.73;100.00;101552.69;5055301;28;20367;-76
2023/01/27 06:13:30;;;;;;;14.68;7.00;;;3.40;99.90;;;1.75;100.00;101558.78;5053961;28;20441;-75
2023/01/27 06:15:56;;;;;;;12.80;6.35;;;3.40;99.90;;;1.66;100.00;101543.47;5058995;28;20449;-77
2023/01/27 06:18:23;;;;;;;12.20;6.22;;;3.40;99.90;;;1.75;100.00;101560.66;5052727;28;20305;-76
2023/01/27 06:20:49;;;;;;;12.85;5.90;;;3.40;99.90;;;1.73;100.00;101555.38;5056060;28;20468;-77
2023/01/27 06:23:17;;;;;;;13.40;7.05;;;3.40;99.90;;;1.74;100.00;101549.03;5052539;28;20044;-78
2023/01/27 06:25:46;;;;;;;12.07;6.00;;;3.40;99.90;;;1.76;100.00;101563.19;5057524;28;20044;-77
2023/01/27 06:28:13;;;;;;;12.10;6.13;;;3.50;99.90;;;1.73;100.00;101560.78;5052482;28;20028;-77
2023/01/27 06:30:40;;;;;;;11.80;5.80;;;3.40;99.90;;;1.74;100.00;101556.25;5052568;28;20032;-77
2023/01/27 06:33:06;;;;;;;9.88;5.10;;;3.40;99.90;;;1.66;100.00;101546.16;5052523;28;20095;-74
2023/01/27 06:35:35;;;;;;;11.65;6.05;;;3.40;99.90;;;1.75;100.00;101558.78;5052410;28;20037;-76
2023/01/27 06:38:02;;;;;;;13.20;6.22;;;3.40;99.90;;;1.74;100.00;101565.16;5084130;28;20037;-78
2023/01/27 06:40:31;;;;;;;9.75;5.15;;;3.40;99.90;;;1.81;100.00;101566.31;5055921;28;20044;-76
2023/01/27 06:42:57;;;;;;;10.02;5.45;;;3.50;99.90;;;1.77;100.00;101559.50;5052647;28;20036;-77
2023/01/27 06:45:23;;;;;;;11.05;4.75;;;3.50;99.90;;;1.75;100.00;101553.41;5052677;28;20514;-76
2023/01/27 06:47:59;;;;;;;9.05;4.22;;;3.50;99.90;;;1.75;100.00;101561.47;5052695;28;20040;-77
2023/01/27 06:50:28;;;;;;;7.53;3.65;;;3.40;99.90;;;1.75;100.00;101564.19;5062489;28;20041;-78
2023/01/27 06:53:03;;;;;;;11.85;4.40;;;3.40;99.90;;;1.73;100.00;101552.69;5052624;28;20840;-78
2023/01/27 06:55:29;;;;;;;6.10;3.50;;;3.40;99.90;;;1.72;100.00;101557.25;5052031;28;20540;-78
2023/01/27 06:57:56;;;;;;;9.27;4.05;;;3.40;99.90;;;1.70;100.00;101569.94;5051690;28;20124;-76
2023/01/27 07:00:21;;;;;;;7.80;3.63;;;3.40;99.90;;;1.75;100.00;101577.63;5055994;28;20123;-77
2023/01/27 07:02:48;;;;;;;7.55;3.45;;;3.40;99.90;;;1.72;100.00;101564.44;5051991;28;20116;-77
2023/01/27 07:05:14;;;;;;;8.52;3.47;;;3.40;99.90;;;1.61;100.00;101564.56;5055841;28;20130;-78
2023/01/27 07:07:40;;;;;;;7.43;3.53;;;3.40;99.90;;;1.70;100.00;101582.56;5052508;28;20446;-78
2023/01/27 07:10:07;;;;;;;9.02;3.33;;;3.40;99.90;;;1.68;100.00;101582.69;5054338;28;20039;-78
2023/01/27 07:12:36;;;;;;;7.63;3.60;;;3.40;99.90;;;1.61;100.00;101575.31;5056457;28;20044;-79
2023/01/27 07:15:07;;;;;;;9.57;3.58;;;3.40;99.90;;;1.73;100.00;101587.69;5051986;28;20041;-78
2023/01/27 07:17:34;;;;;;;5.78;3.10;;;3.40;99.90;;;1.69;100.00;101591.63;5061621;28;20666;-78
2023/01/27 07:20:01;;;;;;;4.88;3.00;;;3.40;99.90;;;1.66;100.00;101599.97;5052301;28;20032;-78
2023/01/27 07:22:27;;;;;;;6.72;2.97;;;3.40;99.90;;;1.72;100.00;101600.28;5055019;28;20047;-78
2023/01/27 07:24:56;;;;;;;5.68;2.53;;;3.40;99.90;;;1.70;100.00;101598.72;5069300;28;20033;-78
2023/01/27 07:27:24;;;;;;;5.68;2.88;;;3.40;99.90;;;1.67;100.00;101610.59;5052917;28;20025;-78
2023/01/27 07:29:50;;;;;;;5.40;2.65;;;3.40;99.90;;;1.69;100.00;101616.69;5063146;28;20925;-79
2023/01/27 07:32:16;;;;;;;6.35;2.80;;;3.40;99.90;;;1.69;100.00;101621.22;5057719;28;20116;-79
2023/01/27 07:34:42;;;;;;;8.95;2.92;;;3.40;99.90;;;1.70;100.00;101618.38;5051929;28;20387;-79
2023/01/27 07:37:08;;;;;;;6.57;2.92;;;3.40;99.90;;;1.66;100.00;101616.13;5055915;28;20033;-79
2023/01/27 07:39:36;;;;;;;6.28;2.85;;;3.40;99.90;;;1.72;100.00;101629.91;5055936;28;20041;-80
2023/01/27 07:42:03;;;;;;;6.45;3.20;;;3.40;99.90;;;1.75;100.00;101634.13;5054697;28;20040;-78
2023/01/27 07:44:29;;;;;;;5.97;2.97;;;3.40;99.90;;;1.71;100.00;101632.69;5058924;28;20041;-79
2023/01/27 07:46:58;;;;;;;5.80;2.97;;;3.50;99.90;;;1.77;100.00;101640.22;5104798;28;20052;-79
2023/01/27 07:49:23;;;;;;;4.97;2.50;;;3.50;99.90;;;1.76;100.00;101640.38;5074898;28;20068;-81
2023/01/27 07:51:50;;;;;;;7.03;2.80;;;3.50;99.90;;;1.75;100.00;101636.81;5052347;28;20403;-79
2023/01/27 07:54:16;;;;;;;5.25;2.40;;;3.50;99.90;;;1.80;100.00;101656.09;5060483;28;20037;-79
2023/01/27 07:56:42;;;;;;;6.22;2.60;;;3.50;99.90;;;1.84;100.00;101652.16;5055105;28;20090;-79
2023/01/27 07:59:10;;;;;;;6.10;3.00;;;3.50;99.90;;;1.83;100.00;101660.38;5055985;28;20120;-78
2023/01/27 08:01:36;;;;;;;6.03;2.83;;;3.50;99.90;;;1.86;100.00;101671.75;5060663;28;20033;-78
2023/01/27 08:04:03;;;;;;;5.78;2.80;;;3.50;99.90;;;1.84;100.00;101668.28;5068320;28;20040;-78
2023/01/27 08:06:29;;;;;;;4.90;2.90;;;3.60;99.90;;;1.84;100.00;101678.22;5077491;28;21860;-79
2023/01/27 08:08:54;;;;;;;5.32;2.75;;;3.60;99.90;;;1.84;100.00;101684.44;5072522;28;20048;-79
2023/01/27 08:11:20;;;;;;;4.60;2.70;;;3.60;99.90;;;1.79;100.00;101692.06;5069116;28;20039;-79
2023/01/27 08:13:46;;;;;;;4.78;2.55;;;3.60;99.90;;;1.79;100.00;101692.06;5067243;28;20032;-79
2023/01/27 08:16:14;;;;;;;5.75;2.53;;;3.60;99.90;;;1.82;100.00;101690.97;5068664;28;20036;-79
2023/01/27 08:18:39;;;;;;;;;;;3.60;99.90;;;1.83;100.00;101700.75;5070860;28;20025;-79
2023/01/27 08:21:09;;;;;;;4.28;2.05;;;3.60;99.90;;;1.82;100.00;101705.25;5106252;27;19917;-79
2023/01/27 08:23:35;;;;;;;4.45;2.25;;;3.60;99.90;;;1.82;100.00;101705.25;5069150;28;20502;-79
2023/01/27 08:26:03;;;;;;;3.63;2.00;;;3.50;99.90;;;1.84;100.00;101718.59;5061214;28;20040;-79
2023/01/27 08:28:33;;;;;;;3.15;1.85;;;3.50;99.90;;;1.86;100.00;101719.31;5054840;28;20063;-78
2023/01/27 08:31:13;;;;;;;3.83;2.05;;;3.60;99.90;;;1.85;100.00;101718.44;5054819;28;20025;-78
2023/01/27 08:33:40;;;;;;;3.72;1.70;;;3.60;99.90;;;1.90;100.00;101719.91;5058802;28;20036;-77
2023/01/27 08:36:11;;;;;;;4.25;1.70;;;3.60;99.90;;;1.86;100.00;101720.19;5055198;28;20115;-78
2023/01/27 08:38:37;;;;;;;4.00;1.80;;;3.60;99.90;;;1.88;100.00;101724.56;5053877;28;20033;-79
2023/01/27 08:41:06;;;;;;;3.70;1.70;;;3.60;99.90;;;1.93;100.00;101728.53;5055096;28;20051;-79
2023/01/27 08:43:32;;;;;;;4.30;1.60;;;3.60;99.90;;;1.93;100.00;101733.09;5061060;28;20044;-78
2023/01/27 08:45:59;;;;;;;4.20;1.67;;;3.60;99.90;;;1.95;100.00;101739.19;5059302;28;20041;-78
2023/01/27 08:48:27;;;;;;;2.78;1.63;;;3.60;99.90;;;1.87;100.00;101729.09;5054634;28;20052;-78
2023/01/27 08:50:53;;;;;;;;;;;3.70;99.90;;;1.86;100.00;101736.31;5055232;28;20037;-77
2023/01/27 08:53:20;;;;;;;3.42;1.20;;;3.70;99.90;;;1.83;100.00;101741.94;5055846;28;19916;-77
2023/01/27 08:55:46;;;;;;;2.17;1.20;;;3.60;99.90;;;1.84;100.00;101743.66;5055104;28;20040;-78
2023/01/27 08:58:12;;;;;;;2.72;1.60;;;3.60;99.90;;;1.80;100.00;101744.91;5057620;28;20043;-78
2023/01/27 09:00:37;;;;;;;3.72;1.20;;;3.60;99.90;;;1.79;100.00;101739.69;5057675;28;20484;-78
2023/01/27 09:03:03;;;;;;;2.55;1.13;;;3.60;99.90;;;1.82;100.00;101750.16;5054241;28;20043;-78
2023/01/27 09:05:29;;;;;;;2.88;1.08;;;3.60;99.90;;;1.77;100.00;101736.25;5054600;28;20028;-78
2023/01/27 09:07:55;;;;;;;1.98;1.02;;;3.60;99.90;;;1.90;100.00;101755.72;5054085;28;20037;-77
2023/01/27 09:10:21;;;;;;;2.15;0.90;;;3.60;99.90;;;1.96;100.00;101752.50;5063291;28;20547;-75
2023/01/27 09:12:47;;;;;;;3.75;1.10;;;3.70;99.90;;;1.98;100.00;101758.59;5060543;28;20120;-78
2023/01/27 09:15:13;;;;;;;2.25;0.98;;;3.70;99.90;;;2.03;100.00;101757.38;5068488;28;20051;-78
2023/01/27 09:17:40;;;;;;;4.90;0.98;;;3.80;99.90;;;2.04;100.00;101765.31;5058774;28;20033;-78
2023/01/27 09:20:08;;;;;;;4.07;1.27;;;3.80;99.90;;;2.05;100.00;101772.41;5053581;28;20511;-78
2023/01/27 09:22:35;;;;;;;2.20;0.90;;;3.80;99.90;;;2.05;100.00;101783.16;5061266;28;20049;-78
2023/01/27 09:25:02;;;;;;;2.22;0.80;;;3.80;99.90;;;2.14;100.00;101771.63;5053888;28;20120;-77
2023/01/27 09:27:28;;;;;;;3.70;1.10;;;3.80;99.90;;;2.20;100.00;101766.69;5053973;28;20079;-77
2023/01/27 09:29:54;;;;;;;3.67;1.40;;;3.90;99.90;;;2.20;100.00;101777.44;5054035;28;20082;-77
2023/01/27 09:32:19;;;;;;;2.00;1.00;;;3.90;99.90;;;2.25;100.00;101780.59;5053332;28;20400;-77
2023/01/27 09:34:45;;;;;;;4.40;1.13;;;4.00;99.90;;;2.29;100.00;101782.03;5053537;28;20029;-77
2023/01/27 09:37:13;;;;;;;3.55;0.90;;;4.00;99.90;;;2.30;100.00;101784.59;5052979;28;20385;-78
2023/01/27 09:39:49;;;;;;;3.78;1.13;;;4.10;99.90;;;2.27;100.00;101786.69;5057103;28;20090;-76
2023/01/27 09:42:41;;;;;;;2.28;1.20;;;4.00;99.90;;;2.22;100.00;101783.56;5078620;28;20043;-77
2023/01/27 09:46:03;;;;;;;1.00;0.70;;;4.00;99.90;;;2.26;100.00;101793.94;5062714;28;20089;-78
2023/01/27 09:48:39;;;;;;;2.70;1.10;;;4.00;99.90;;;2.25;100.00;101785.97;5053583;28;20101;-77
2023/01/27 09:51:46;;;;;;;3.08;1.02;;;4.00;99.90;;;2.22;100.00;101783.56;5056144;28;20325;-77
2023/01/27 09:54:31;;;;;;;1.73;0.90;;;4.00;99.90;;;2.33;100.00;101788.00;5062015;28;20029;-78
2023/01/27 09:57:19;;;;;;;2.03;0.98;;;4.10;99.90;;;2.39;100.00;101790.16;5064836;28;20063;-77
2023/01/27 10:00:07;;;;;;;3.93;0.90;;;4.10;99.90;;;2.27;100.00;101775.91;5065804;28;20032;-77
2023/01/27 10:03:07;;;;;;;2.75;1.40;;;4.10;99.90;;;2.35;100.00;101788.72;5063127;28;20324;-78
2023/01/27 10:06:03;;;;;;;5.35;1.27;;;4.20;99.90;;;2.34;100.00;101795.94;5057541;28;20492;-78
2023/01/27 10:09:13;;;;;;;6.18;2.70;;;4.10;99.90;;;2.42;100.00;101795.25;5059306;28;20372;-77
2023/01/27 10:12:09;;;;;;;4.93;1.73;;;4.20;99.90;;;2.51;100.00;101790.91;5068534;28;20064;-78
2023/01/27 10:14:59;;;;;;;4.00;1.67;;;4.30;99.90;;;2.56;100.00;101785.97;5066922;28;20094;-78
2023/01/27 10:17:39;;;;;;;4.78;1.63;;;4.30;99.90;;;2.48;100.00;101793.88;5065706;28;20043;-78
2023/01/27 10:20:35;;;;;;;6.15;1.30;;;4.30;99.90;;;2.54;100.00;101788.81;5060191;28;20040;-78
2023/01/27 10:23:32;;;;;;;3.25;1.75;;;4.30;99.90;;;2.56;100.00;101792.22;5052765;28;20108;-78
2023/01/27 10:26:18;;;;;;;5.22;1.40;;;4.30;99.90;;;2.63;100.00;101781.72;5052319;28;20060;-78
2023/01/27 10:28:58;;;;;;;3.50;2.13;;;4.40;99.90;;;2.63;100.00;101780.88;5066267;28;20515;-78
2023/01/27 10:31:35;;;;;;;3.47;1.50;;;4.40;99.90;;;2.67;100.00;101785.88;5063202;28;20036;-78
2023/01/27 10:34:23;;;;;;;3.03;1.40;;;4.40;99.90;;;2.68;100.00;101784.88;5058904;28;20043;-78
2023/01/27 10:37:05;;;;;;;4.28;1.00;;;4.40;99.90;;;2.69;100.00;101786.59;5064335;28;20045;-78
2023/01/27 10:39:52;;;;;;;2.42;1.00;;;4.40;99.90;;;2.58;100.00;101767.81;5061725;28;20114;-76
2023/01/27 10:42:32;;;;;;;2.30;0.90;;;4.50;99.90;;;2.73;100.00;101793.41;5064123;28;20029;-77
2023/01/27 10:45:38;;;;;;;1.10;0.60;;;4.50;99.90;;;2.73;100.00;101798.78;5072618;28;20039;-77
2023/01/27 10:48:34;;;;;;;2.53;1.13;;;4.50;99.90;;;2.73;100.00;101790.72;5054608;28;20094;-77
2023/01/27 10:51:30;;;;;;;2.70;0.82;;;4.50;99.90;;;2.68;100.00;101797.50;5059889;28;20037;-77
2023/01/27 10:54:17;;;;;;;2.63;0.80;;;4.50;99.90;;;2.72;100.00;101801.63;5038806;28;20515;-77
2023/01/27 10:57:18;;;;;;;2.83;0.80;;;4.50;99.90;;;2.52;100.00;101792.63;5052905;28;20037;-77